createdAt,value
2023-04-02T00:02:59.913Z,8.72
2023-04-02T00:06:28.077Z,8.67
2023-04-02T00:09:04.630Z,8.66
2023-04-02T00:11:38.938Z,8.64
2023-04-02T00:14:17.321Z,8.64
2023-04-02T00:16:46.168Z,8.64
2023-04-02T00:19:25.071Z,8.61
2023-04-02T00:21:54.189Z,8.65
2023-04-02T00:24:22.836Z,8.62
2023-04-02T00:26:53.184Z,8.62
2023-04-02T00:29:22.015Z,8.63
2023-04-02T00:31:54.574Z,8.64
2023-04-02T00:34:41.872Z,8.63
2023-04-02T00:37:23.979Z,8.63
2023-04-02T00:39:58.826Z,8.63
2023-04-02T00:42:30.657Z,8.60
2023-04-02T00:45:00.136Z,8.57
2023-04-02T00:47:37.661Z,8.56
2023-04-02T00:50:09.250Z,8.53
2023-04-02T00:52:38.455Z,8.52
2023-04-02T00:56:21.905Z,8.48
2023-04-02T00:59:48.700Z,8.45
2023-04-02T01:02:36.975Z,8.43
2023-04-02T01:09:20.339Z,8.40
2023-04-02T01:12:54.730Z,8.38
2023-04-02T01:16:26.061Z,8.37
2023-04-02T01:19:33.189Z,8.35
2023-04-02T01:22:35.362Z,8.33
2023-04-02T01:25:06.611Z,8.30
2023-04-02T01:27:45.743Z,8.29
2023-04-02T01:30:16.084Z,8.23
2023-04-02T01:32:45.806Z,8.21
2023-04-02T01:35:14.515Z,8.23
2023-04-02T01:38:00.496Z,8.20
2023-04-02T01:40:48.673Z,8.17
2023-04-02T01:43:59.041Z,8.15
2023-04-02T01:46:33.361Z,8.15
2023-04-02T01:49:10.044Z,8.13
2023-04-02T01:51:43.486Z,8.12
2023-04-02T01:55:11.758Z,8.08
2023-04-02T01:58:43.029Z,8.10
2023-04-02T02:02:11.453Z,8.09
2023-04-02T02:05:40.556Z,8.07
2023-04-02T02:08:48.944Z,8.07
2023-04-02T02:15:22.541Z,8.02
2023-04-02T02:17:58.111Z,8.02
2023-04-02T02:20:28.408Z,8.02
2023-04-02T02:22:57.897Z,8.01
2023-04-02T02:25:34.991Z,7.96
2023-04-02T02:28:06.487Z,7.94
2023-04-02T02:30:44.184Z,7.91
2023-04-02T02:33:21.901Z,7.93
2023-04-02T02:36:00.934Z,7.91
2023-04-02T02:38:42.370Z,7.93
2023-04-02T02:41:37.979Z,7.94
2023-04-02T02:44:09.518Z,7.94
2023-04-02T02:47:00.289Z,7.93
2023-04-02T02:49:33.916Z,7.88
2023-04-02T02:52:14.536Z,7.89
2023-04-02T02:55:52.013Z,7.92
2023-04-02T02:59:26.807Z,7.96
2023-04-02T03:06:52.768Z,7.92
2023-04-02T03:10:05.740Z,7.86
2023-04-02T03:13:04.197Z,7.87
2023-04-02T03:16:46.632Z,7.85
2023-04-02T03:20:20.671Z,7.82
2023-04-02T03:23:55.157Z,7.85
2023-04-02T03:27:30.188Z,7.86
2023-04-02T03:30:37.272Z,7.84
2023-04-02T03:34:08.920Z,7.83
2023-04-02T03:37:37.156Z,7.82
2023-04-02T03:41:05.355Z,7.89
2023-04-02T03:44:42.144Z,7.87
2023-04-02T03:48:16.464Z,7.89
2023-04-02T03:51:27.918Z,7.90
2023-04-02T03:59:25.100Z,7.90
2023-04-02T04:02:32.487Z,7.91
2023-04-02T04:05:05.495Z,7.92
2023-04-02T04:07:42.914Z,7.91
2023-04-02T04:10:20.621Z,7.91
2023-04-02T04:12:52.216Z,7.92
2023-04-02T04:15:34.561Z,7.93
2023-04-02T04:18:10.630Z,7.94
2023-04-02T04:20:58.880Z,7.96
2023-04-02T04:23:37.344Z,7.98
2023-04-02T04:26:20.135Z,8.00
2023-04-02T04:29:09.844Z,8.01
2023-04-02T04:31:40.932Z,8.02
2023-04-02T04:34:16.498Z,8.02
2023-04-02T04:36:55.919Z,8.03
2023-04-02T04:39:40.894Z,8.01
2023-04-02T04:42:20.639Z,8.00
2023-04-02T04:45:18.829Z,8.02
2023-04-02T04:47:57.217Z,8.03
2023-04-02T04:50:36.814Z,8.04
2023-04-02T04:54:05.958Z,8.06
2023-04-02T04:57:35.371Z,8.08
2023-04-02T05:00:42.564Z,8.10
2023-04-02T05:03:19.806Z,8.10
2023-04-02T05:05:49.137Z,8.10
2023-04-02T05:08:25.965Z,8.11
2023-04-02T05:11:46.994Z,8.14
2023-04-02T05:14:25.292Z,8.15
2023-04-02T05:17:05.784Z,8.16
2023-04-02T05:19:48.129Z,8.20
2023-04-02T05:22:23.709Z,8.23
2023-04-02T05:25:20.111Z,8.28
2023-04-02T05:28:16.265Z,8.34
2023-04-02T05:30:58.458Z,8.39
2023-04-02T05:33:29.851Z,8.43
2023-04-02T05:36:05.094Z,8.46
2023-04-02T05:38:44.412Z,8.51
2023-04-02T05:41:32.403Z,8.53
2023-04-02T05:44:24.760Z,8.57
2023-04-02T05:47:12.624Z,8.60
2023-04-02T05:50:05.942Z,8.65
2023-04-02T05:52:42.992Z,8.70
2023-04-02T05:55:11.766Z,8.74
2023-04-02T05:58:13.544Z,8.80
2023-04-02T06:00:41.072Z,8.89
2023-04-02T06:03:46.535Z,8.96
2023-04-02T06:06:40.080Z,9.06
2023-04-02T06:09:32.761Z,9.17
2023-04-02T06:12:50.813Z,9.26
2023-04-02T06:15:23.220Z,9.37
2023-04-02T06:18:01.636Z,9.42
2023-04-02T06:20:30.839Z,9.51
2023-04-02T06:23:04.193Z,9.59
2023-04-02T06:25:43.821Z,9.68
2023-04-02T06:28:17.672Z,9.77
2023-04-02T06:30:58.299Z,9.86
2023-04-02T06:33:27.316Z,9.92
2023-04-02T06:35:56.484Z,9.99
2023-04-02T06:38:32.791Z,10.06
2023-04-02T06:41:20.417Z,10.12
2023-04-02T06:44:32.460Z,10.17
2023-04-02T06:48:17.853Z,10.20
2023-04-02T06:51:19.994Z,10.24
2023-04-02T06:54:48.311Z,10.26
2023-04-02T06:58:17.454Z,10.30
2023-04-02T07:01:45.979Z,10.30
2023-04-02T07:05:14.635Z,10.29
2023-04-02T07:08:27.024Z,10.26
2023-04-02T07:15:20.013Z,10.23
2023-04-02T07:17:48.867Z,10.20
2023-04-02T07:20:30.841Z,10.15
2023-04-02T07:23:01.529Z,10.12
2023-04-02T07:25:30.262Z,10.09
2023-04-02T07:27:58.780Z,10.08
2023-04-02T07:30:27.453Z,10.08
2023-04-02T07:32:56.373Z,10.10
2023-04-02T07:35:24.895Z,10.09
2023-04-02T07:37:53.274Z,10.08
2023-04-02T07:40:24.299Z,10.05
2023-04-02T07:42:53.036Z,10.04
2023-04-02T07:45:21.638Z,10.03
2023-04-02T07:47:50.071Z,10.04
2023-04-02T07:50:18.692Z,10.05
2023-04-02T07:53:46.976Z,10.08
2023-04-02T07:57:15.312Z,10.13
2023-04-02T07:59:48.191Z,10.17
2023-04-02T08:02:21.698Z,10.24
2023-04-02T08:04:54.051Z,10.27
2023-04-02T08:08:26.471Z,10.31
2023-04-02T08:11:54.708Z,10.37
2023-04-02T08:15:22.905Z,10.41
2023-04-02T08:18:56.158Z,10.49
2023-04-02T08:21:25.748Z,10.55
2023-04-02T08:23:54.363Z,10.56
2023-04-02T08:26:22.807Z,10.58
2023-04-02T08:28:51.378Z,10.59
2023-04-02T08:31:19.903Z,10.59
2023-04-02T08:33:48.554Z,10.59
2023-04-02T08:37:16.992Z,10.63
2023-04-02T08:40:45.236Z,10.62
2023-04-02T08:43:56.354Z,10.62
2023-04-02T08:47:10.774Z,10.58
2023-04-02T08:50:19.289Z,10.63
2023-04-02T08:53:33.358Z,10.71
2023-04-02T08:56:47.481Z,10.80
2023-04-02T08:59:30.891Z,10.78
2023-04-02T09:02:33.146Z,10.81
2023-04-02T09:05:07.246Z,10.88
2023-04-02T09:07:36.098Z,10.92
2023-04-02T09:10:05.133Z,10.92
2023-04-02T09:12:33.542Z,10.93
2023-04-02T09:15:18.714Z,10.97
2023-04-02T09:17:54.178Z,11.01
2023-04-02T09:20:27.927Z,11.01
2023-04-02T09:22:57.485Z,11.01
2023-04-02T09:25:31.683Z,10.99
2023-04-02T09:28:05.980Z,11.05
2023-04-02T09:30:52.550Z,11.12
2023-04-02T09:33:51.244Z,11.09
2023-04-02T09:36:33.498Z,11.14
2023-04-02T09:39:07.205Z,11.15
2023-04-02T09:41:37.198Z,11.16
2023-04-02T09:44:26.114Z,11.19
2023-04-02T09:47:04.253Z,11.14
2023-04-02T09:49:36.364Z,11.12
2023-04-02T09:52:18.279Z,11.13
2023-04-02T09:55:35.790Z,11.12
2023-04-02T09:59:12.961Z,11.20
2023-04-02T10:02:41.256Z,11.29
2023-04-02T10:10:20.641Z,11.43
2023-04-02T10:13:57.322Z,11.51
2023-04-02T10:21:25.986Z,11.61
2023-04-02T10:23:55.856Z,11.70
2023-04-02T10:26:45.659Z,11.71
2023-04-02T10:29:42.224Z,11.74
2023-04-02T10:32:19.632Z,11.76
2023-04-02T10:34:58.945Z,11.80
2023-04-02T10:37:46.012Z,11.82
2023-04-02T10:40:39.554Z,11.82
2023-04-02T10:43:36.560Z,11.86
2023-04-02T10:46:26.583Z,11.86
2023-04-02T10:49:08.550Z,11.90
2023-04-02T10:51:58.232Z,11.87
2023-04-02T10:54:38.107Z,11.87
2023-04-02T10:57:39.566Z,11.90
2023-04-02T11:00:28.038Z,11.94
2023-04-02T11:02:59.382Z,11.93
2023-04-02T11:05:49.953Z,11.95
2023-04-02T11:08:30.033Z,11.99
2023-04-02T11:11:05.679Z,11.95
2023-04-02T11:13:55.567Z,11.95
2023-04-02T11:16:25.299Z,11.95
2023-04-02T11:19:22.670Z,11.92
2023-04-02T11:22:03.178Z,11.92
2023-04-02T11:24:44.390Z,11.90
2023-04-02T11:27:14.731Z,11.92
2023-04-02T11:29:52.544Z,11.94
2023-04-02T11:32:20.884Z,11.98
2023-04-02T11:35:03.118Z,12.03
2023-04-02T11:37:43.656Z,12.12
2023-04-02T11:40:12.289Z,12.18
2023-04-02T11:42:42.813Z,12.24
2023-04-02T11:45:35.593Z,12.26
2023-04-02T11:48:17.823Z,12.24
2023-04-02T11:50:46.844Z,12.18
2023-04-02T11:53:21.328Z,12.15
2023-04-02T11:56:09.726Z,12.18
2023-04-02T11:59:12.269Z,12.23
2023-04-02T12:02:18.229Z,12.33
2023-04-02T12:04:56.633Z,12.39
2023-04-02T12:07:57.073Z,12.48
2023-04-02T12:10:49.177Z,12.51
2023-04-02T12:13:22.121Z,12.62
2023-04-02T12:15:52.802Z,12.74
2023-04-02T12:18:24.098Z,12.89
2023-04-02T12:20:56.087Z,13.15
2023-04-02T12:23:31.865Z,13.50
2023-04-02T12:26:09.537Z,13.90
2023-04-02T12:28:42.535Z,14.24
2023-04-02T12:31:18.952Z,14.53
2023-04-02T12:33:52.722Z,14.73
2023-04-02T12:36:23.797Z,14.89
2023-04-02T12:38:58.493Z,14.92
2023-04-02T12:41:32.487Z,14.99
2023-04-02T12:44:07.517Z,15.09
2023-04-02T12:46:36.464Z,15.07
2023-04-02T12:49:08.096Z,15.07
2023-04-02T12:51:37.626Z,15.21
2023-04-02T12:54:06.524Z,15.16
2023-04-02T12:56:35.313Z,15.35
2023-04-02T12:59:04.013Z,15.52
2023-04-02T13:01:34.080Z,15.48
2023-04-02T13:04:07.851Z,15.46
2023-04-02T13:06:37.226Z,15.50
2023-04-02T13:09:27.368Z,15.49
2023-04-02T13:11:57.594Z,15.48
2023-04-02T13:14:26.842Z,15.51
2023-04-02T13:16:55.899Z,15.53
2023-04-02T13:19:33.604Z,15.62
2023-04-02T13:22:04.496Z,15.71
2023-04-02T13:24:33.653Z,15.84
2023-04-02T13:27:04.432Z,16.12
2023-04-02T13:29:35.334Z,16.43
2023-04-02T13:32:08.080Z,16.92
2023-04-02T13:34:36.788Z,17.50
2023-04-02T13:37:05.499Z,17.80
2023-04-02T13:39:33.885Z,17.65
2023-04-02T13:42:04.631Z,17.55
2023-04-02T13:44:37.804Z,17.67
2023-04-02T13:47:06.509Z,17.79
2023-04-02T13:49:35.184Z,17.98
2023-04-02T13:52:05.341Z,18.23
2023-04-02T13:54:40.807Z,18.71
2023-04-02T13:57:09.843Z,19.02
2023-04-02T13:59:38.330Z,19.23
2023-04-02T14:02:10.689Z,19.73
2023-04-02T14:04:43.726Z,20.14
2023-04-02T14:07:17.927Z,20.46
2023-04-02T14:09:55.734Z,20.95
2023-04-02T14:12:55.574Z,21.53
2023-04-02T14:15:47.799Z,21.89
2023-04-02T14:18:26.063Z,22.03
2023-04-02T14:21:22.325Z,21.68
2023-04-02T14:24:13.105Z,21.91
2023-04-02T14:26:44.066Z,21.84
2023-04-02T14:29:31.258Z,21.56
2023-04-02T14:32:24.164Z,21.69
2023-04-02T14:35:04.962Z,22.02
2023-04-02T14:37:47.746Z,22.52
2023-04-02T14:40:22.086Z,22.93
2023-04-02T14:43:01.513Z,23.05
2023-04-02T14:45:38.991Z,23.23
2023-04-02T14:48:12.673Z,23.20
2023-04-02T14:50:42.995Z,23.34
2023-04-02T14:53:24.218Z,23.56
2023-04-02T14:55:54.550Z,23.95
2023-04-02T14:58:29.000Z,23.88
2023-04-02T15:01:03.917Z,24.09
2023-04-02T15:03:44.355Z,23.96
2023-04-02T15:06:21.525Z,23.27
2023-04-02T15:09:08.374Z,22.47
2023-04-02T15:12:00.791Z,22.00
2023-04-02T15:14:35.687Z,21.46
2023-04-02T15:17:04.355Z,20.92
2023-04-02T15:19:32.737Z,20.49
2023-04-02T15:22:31.951Z,20.04
2023-04-02T15:25:06.938Z,19.56
2023-04-02T15:28:09.445Z,19.16
2023-04-02T15:30:42.579Z,18.74
2023-04-02T15:33:43.754Z,18.43
2023-04-02T15:36:20.057Z,18.08
2023-04-02T15:38:57.441Z,17.75
2023-04-02T15:41:27.663Z,17.45
2023-04-02T15:44:15.239Z,17.23
2023-04-02T15:46:44.008Z,17.01
2023-04-02T15:49:23.883Z,16.80
2023-04-02T15:52:10.615Z,16.59
2023-04-02T15:54:59.078Z,16.40
2023-04-02T15:57:54.730Z,16.22
2023-04-02T16:00:27.965Z,16.03
2023-04-02T16:03:11.596Z,15.90
2023-04-02T16:06:04.824Z,15.79
2023-04-02T16:08:54.547Z,15.66
2023-04-02T16:11:24.572Z,15.52
2023-04-02T16:14:01.250Z,15.40
2023-04-02T16:16:36.331Z,15.30
2023-04-02T16:19:32.569Z,15.19
2023-04-02T16:22:29.643Z,15.08
2023-04-02T16:25:03.495Z,15.01
2023-04-02T16:27:37.775Z,14.95
2023-04-02T16:30:22.636Z,14.91
2023-04-02T16:33:09.157Z,14.88
2023-04-02T16:36:15.573Z,14.81
2023-04-02T16:38:59.192Z,14.70
2023-04-02T16:41:44.562Z,14.58
2023-04-02T16:44:31.784Z,14.44
2023-04-02T16:47:29.990Z,14.32
2023-04-02T16:50:29.623Z,14.20
2023-04-02T16:53:17.515Z,14.03
2023-04-02T16:56:16.989Z,13.84
2023-04-02T16:59:20.513Z,13.65
2023-04-02T17:02:20.707Z,13.40
2023-04-02T17:04:58.817Z,13.16
2023-04-02T17:07:34.756Z,12.98
2023-04-02T17:10:03.246Z,12.77
2023-04-02T17:12:34.378Z,12.53
2023-04-02T17:15:27.735Z,12.28
2023-04-02T17:17:59.066Z,12.00
2023-04-02T17:20:28.524Z,11.83
2023-04-02T17:22:57.424Z,11.67
2023-04-02T17:25:30.535Z,11.54
2023-04-02T17:27:58.892Z,11.46
2023-04-02T17:30:41.451Z,11.46
2023-04-02T17:33:18.788Z,11.46
2023-04-02T17:36:00.199Z,11.49
2023-04-02T17:38:34.378Z,11.53
2023-04-02T17:41:32.565Z,11.56
2023-04-02T17:44:20.233Z,11.58
2023-04-02T17:47:19.738Z,11.62
2023-04-02T17:50:21.579Z,11.65
2023-04-02T17:53:09.341Z,11.72
2023-04-02T17:56:02.124Z,11.79
2023-04-02T17:59:13.596Z,11.83
2023-04-02T18:01:55.324Z,11.75
2023-04-02T18:04:44.781Z,11.72
2023-04-02T18:07:29.059Z,11.69
2023-04-02T18:10:20.361Z,11.56
2023-04-02T18:13:17.153Z,11.39
2023-04-02T18:15:53.823Z,11.20
2023-04-02T18:18:40.072Z,10.91
2023-04-02T18:21:14.681Z,10.76
2023-04-02T18:24:13.484Z,10.62
2023-04-02T18:26:52.960Z,10.56
2023-04-02T18:29:31.476Z,10.52
2023-04-02T18:32:34.013Z,10.48
2023-04-02T18:35:20.873Z,10.44
2023-04-02T18:38:22.111Z,10.40
2023-04-02T18:41:08.384Z,10.36
2023-04-02T18:43:51.125Z,10.38
2023-04-02T18:46:30.057Z,10.39
2023-04-02T18:49:01.461Z,10.41
2023-04-02T18:51:35.741Z,10.44
2023-04-02T18:54:28.953Z,10.46
2023-04-02T18:56:57.426Z,10.46
2023-04-02T18:59:31.865Z,10.45
2023-04-02T19:02:32.956Z,10.43
2023-04-02T19:05:19.288Z,10.34
2023-04-02T19:07:53.724Z,10.22
2023-04-02T19:10:33.963Z,10.16
2023-04-02T19:13:02.457Z,10.15
2023-04-02T19:16:03.222Z,10.16
2023-04-02T19:18:57.372Z,10.21
2023-04-02T19:21:38.202Z,10.26
2023-04-02T19:24:41.544Z,10.28
2023-04-02T19:27:27.365Z,10.26
2023-04-02T19:30:29.678Z,10.27
2023-04-02T19:33:17.020Z,10.30
2023-04-02T19:35:56.392Z,10.32
2023-04-02T19:38:48.928Z,10.34
2023-04-02T19:41:52.365Z,10.34
2023-04-02T19:44:21.971Z,10.28
2023-04-02T19:46:51.756Z,10.27
2023-04-02T19:49:34.912Z,10.27
2023-04-02T19:52:03.453Z,10.25
2023-04-02T19:54:31.902Z,10.21
2023-04-02T19:57:01.363Z,10.19
2023-04-02T19:59:31.314Z,10.17
2023-04-02T20:01:59.771Z,10.16
2023-04-02T20:04:28.212Z,10.17
2023-04-02T20:06:56.646Z,10.17
2023-04-02T20:09:25.254Z,10.14
2023-04-02T20:11:53.689Z,10.09
2023-04-02T20:14:22.156Z,10.06
2023-04-02T20:16:50.814Z,10.01
2023-04-02T20:19:20.434Z,9.90
2023-04-02T20:21:48.767Z,9.82
2023-04-02T20:24:17.055Z,9.71
2023-04-02T20:26:45.722Z,9.65
2023-04-02T20:29:14.365Z,9.60
2023-04-02T20:31:42.775Z,9.54
2023-04-02T20:34:11.637Z,9.49
2023-04-02T20:36:40.146Z,9.41
2023-04-02T20:39:09.308Z,9.33
2023-04-02T20:41:38.259Z,9.26
2023-04-02T20:44:07.164Z,9.23
2023-04-02T20:46:35.712Z,9.21
2023-04-02T20:49:04.389Z,9.16
2023-04-02T20:51:32.889Z,9.15
2023-04-02T20:54:01.486Z,9.15
2023-04-02T20:56:29.899Z,9.14
2023-04-02T20:58:58.245Z,9.08
2023-04-02T21:01:28.955Z,9.01
2023-04-02T21:04:00.580Z,8.97
2023-04-02T21:06:32.230Z,8.92
2023-04-02T21:09:01.966Z,8.86
2023-04-02T21:11:30.643Z,8.83
2023-04-02T21:13:59.128Z,8.81
2023-04-02T21:16:31.758Z,8.78
2023-04-02T21:19:02.944Z,8.72
2023-04-02T21:21:31.734Z,8.64
2023-04-02T21:24:03.007Z,8.56
2023-04-02T21:26:34.774Z,8.49
2023-04-02T21:29:04.033Z,8.42
2023-04-02T21:31:37.955Z,8.35
2023-04-02T21:34:08.589Z,8.30
2023-04-02T21:36:40.901Z,8.24
2023-04-02T21:39:13.371Z,8.17
2023-04-02T21:41:45.048Z,8.09
2023-04-02T21:44:15.568Z,8.03
2023-04-02T21:46:44.846Z,7.99
2023-04-02T21:49:15.947Z,7.99
2023-04-02T21:51:46.519Z,8.01
2023-04-02T21:54:16.207Z,8.02
2023-04-02T21:56:46.883Z,8.02
2023-04-02T21:59:17.590Z,7.96
2023-04-02T22:01:50.900Z,7.89
2023-04-02T22:04:21.916Z,7.82
2023-04-02T22:06:52.335Z,7.78
2023-04-02T22:09:27.307Z,7.76
2023-04-02T22:12:01.997Z,7.72
2023-04-02T22:14:31.030Z,7.70
2023-04-02T22:16:59.776Z,7.66
2023-04-02T22:19:28.387Z,7.67
2023-04-02T22:21:57.033Z,7.69
2023-04-02T22:24:25.809Z,7.73
2023-04-02T22:26:54.373Z,7.76
2023-04-02T22:29:22.778Z,7.78
2023-04-02T22:31:51.229Z,7.82
2023-04-02T22:34:19.913Z,7.84
2023-04-02T22:36:48.350Z,7.85
2023-04-02T22:39:17.214Z,7.86
2023-04-02T22:41:45.528Z,7.84
2023-04-02T22:44:15.523Z,7.81
2023-04-02T22:46:44.210Z,7.80
2023-04-02T22:49:12.844Z,7.81
2023-04-02T22:51:41.416Z,7.82
2023-04-02T22:54:10.091Z,7.78
2023-04-02T22:56:38.625Z,7.70
2023-04-02T22:59:07.004Z,7.61
2023-04-02T23:01:36.475Z,7.55
2023-04-02T23:04:05.559Z,7.54
2023-04-02T23:06:34.127Z,7.55
2023-04-02T23:09:02.639Z,7.52
2023-04-02T23:11:31.293Z,7.45
2023-04-02T23:13:59.696Z,7.37
2023-04-02T23:16:29.350Z,7.23
2023-04-02T23:18:58.597Z,7.10
2023-04-02T23:21:27.897Z,7.00
2023-04-02T23:23:56.432Z,6.91
2023-04-02T23:26:30.922Z,6.86
2023-04-02T23:29:00.247Z,6.82
2023-04-02T23:31:28.804Z,6.78
2023-04-02T23:33:57.308Z,6.75
2023-04-02T23:36:31.207Z,6.73
2023-04-02T23:39:02.435Z,6.68
2023-04-02T23:41:31.662Z,6.59
2023-04-02T23:44:00.284Z,6.50
2023-04-02T23:46:30.425Z,6.43
2023-04-02T23:49:00.249Z,6.35
2023-04-02T23:51:31.439Z,6.28
2023-04-02T23:54:00.413Z,6.24
2023-04-02T23:56:28.840Z,6.22
2023-04-02T23:58:57.562Z,6.24
